Time;durP1;ratioP1;P1;durP2;ratioP2;P2;SDS_P1;SDS_P2;PMS_P1;PMS_P2;Temp;Humidity;BMP_temperature;BMP_pressure;BME280_temperature;BME280_humidity;BME280_pressure;Samples;Min_cycle;Max_cycle;Signal;HPM_P1;HPM_P2
2022/10/08 00:00:54;;;;;;;7.83;4.50;;;12.60;99.90;;;;;;4185303;28;20311;-74
2022/10/08 00:02:56;;;;;;;7.07;4.27;;;12.70;99.90;;;;;;4187574;28;20288;-75
2022/10/08 00:04:58;;;;;;;8.30;4.70;;;12.70;99.90;;;;;;4184090;28;20198;-74
2022/10/08 00:07:01;;;;;;;7.90;4.20;;;12.70;99.90;;;;;;4185429;28;20210;-74
2022/10/08 00:09:06;;;;;;;8.33;4.67;;;12.70;99.90;;;;;;4181311;28;20252;-75
2022/10/08 00:11:10;;;;;;;8.27;4.50;;;12.60;99.90;;;;;;4183182;28;20297;-73
2022/10/08 00:13:11;;;;;;;7.93;4.33;;;12.60;99.90;;;;;;4184199;28;20580;-73
2022/10/08 00:15:13;;;;;;;9.07;4.47;;;12.60;99.90;;;;;;4184617;28;20233;-74
2022/10/08 00:17:15;;;;;;;7.33;4.53;;;12.60;99.90;;;;;;4184289;28;20223;-75
2022/10/08 00:19:17;;;;;;;7.37;4.43;;;12.60;99.90;;;;;;4183905;28;20229;-75
2022/10/08 00:21:22;;;;;;;7.57;4.87;;;12.60;99.90;;;;;;4183309;28;20574;-75
2022/10/08 00:23:25;;;;;;;9.57;4.47;;;12.60;99.90;;;;;;4184462;28;20191;-74
2022/10/08 00:25:27;;;;;;;8.47;4.70;;;12.60;99.90;;;;;;4184542;28;20209;-74
2022/10/08 00:27:29;;;;;;;8.23;4.87;;;12.60;99.90;;;;;;4184936;28;20225;-74
2022/10/08 00:29:32;;;;;;;8.20;4.20;;;12.60;99.90;;;;;;4183882;28;20590;-74
2022/10/08 00:31:36;;;;;;;9.47;4.70;;;12.50;99.90;;;;;;4183888;28;20209;-75
2022/10/08 00:33:38;;;;;;;11.77;4.80;;;12.50;99.90;;;;;;4184747;28;20210;-74
2022/10/08 00:35:40;;;;;;;8.80;5.17;;;12.50;99.90;;;;;;4182447;28;20235;-74
2022/10/08 00:37:42;;;;;;;9.83;4.53;;;12.50;99.90;;;;;;4183516;28;20251;-74
2022/10/08 00:39:46;;;;;;;7.43;4.53;;;12.50;99.90;;;;;;4184553;28;20240;-76
2022/10/08 00:41:51;;;;;;;5.30;3.57;;;12.50;99.90;;;;;;4177518;28;20260;-74
2022/10/08 00:43:54;;;;;;;8.40;4.20;;;12.60;99.90;;;;;;4182350;28;20264;-73
2022/10/08 00:45:56;;;;;;;7.40;4.50;;;12.50;99.90;;;;;;4183522;28;20217;-74
2022/10/08 00:47:58;;;;;;;5.57;3.93;;;12.50;99.90;;;;;;4184389;28;20868;-75
2022/10/08 00:50:05;;;;;;;7.33;4.20;;;12.50;99.90;;;;;;4186029;28;20608;-75
2022/10/08 00:52:07;;;;;;;5.53;3.87;;;12.50;99.90;;;;;;4186823;28;20722;-73
2022/10/08 00:54:09;;;;;;;6.60;4.40;;;12.50;99.90;;;;;;4182930;28;20289;-73
2022/10/08 00:56:13;;;;;;;9.47;4.33;;;12.50;99.90;;;;;;4184870;28;20208;-74
2022/10/08 00:58:18;;;;;;;7.17;4.40;;;12.50;99.90;;;;;;4182025;28;20231;-73
2022/10/08 01:00:22;;;;;;;7.33;4.20;;;12.50;99.90;;;;;;4183964;28;20232;-74
2022/10/08 01:02:24;;;;;;;5.43;3.50;;;12.40;99.90;;;;;;4185170;28;20216;-74
2022/10/08 01:04:26;;;;;;;5.83;3.63;;;12.40;99.90;;;;;;4185322;28;20268;-74
2022/10/08 01:06:31;;;;;;;6.50;3.90;;;12.50;99.90;;;;;;4181511;28;20643;-73
2022/10/08 01:08:37;;;;;;;4.87;3.40;;;12.40;99.90;;;;;;4182499;28;20210;-74
2022/10/08 01:10:46;;;;;;;5.50;3.30;;;12.40;99.90;;;;;;4183095;28;20885;-72
2022/10/08 01:13:04;;;;;;;6.50;4.00;;;12.40;99.90;;;;;;4183810;28;20284;-73
2022/10/08 01:15:16;;;;;;;4.93;3.50;;;12.40;99.90;;;;;;4181119;28;20608;-71
2022/10/08 01:17:26;;;;;;;5.40;3.60;;;12.40;99.90;;;;;;4185803;28;20234;-73
2022/10/08 01:19:47;;;;;;;4.40;3.20;;;12.30;99.90;;;;;;4177304;28;20320;-72
2022/10/08 01:22:06;;;;;;;3.90;2.80;;;12.30;99.90;;;;;;4183782;28;20225;-76
2022/10/08 01:25:31;;;;;;;5.03;3.37;;;12.30;99.90;;;;;;4184723;28;20209;-75
2022/10/08 01:26:57;;;;;;;4.37;2.97;;;12.50;99.90;;;;;;4183179;28;20210;-74
2022/10/08 01:29:06;;;;;;;6.03;3.27;;;12.30;99.90;;;;;;4184051;28;20236;-74
2022/10/08 01:31:12;;;;;;;5.00;3.47;;;12.30;99.90;;;;;;4182745;28;20206;-72
2022/10/08 01:33:19;;;;;;;6.17;4.13;;;12.30;99.90;;;;;;4178694;28;20213;-73
2022/10/08 01:35:26;;;;;;;5.40;4.00;;;12.30;99.90;;;;;;4187075;28;20228;-74
2022/10/08 01:37:32;;;;;;;5.40;3.40;;;12.20;99.90;;;;;;4187438;28;20758;-74
2022/10/08 01:39:36;;;;;;;6.53;3.67;;;12.20;99.90;;;;;;4202856;28;20620;-74
2022/10/08 01:41:41;;;;;;;6.47;3.73;;;12.20;99.90;;;;;;4188827;28;20216;-74
2022/10/08 01:43:46;;;;;;;6.20;3.90;;;12.20;99.90;;;;;;4187243;28;20221;-75
2022/10/08 01:45:55;;;;;;;5.70;4.17;;;12.20;99.90;;;;;;4185322;28;20201;-75
2022/10/08 01:48:00;;;;;;;7.73;3.93;;;12.20;99.90;;;;;;4178115;28;20212;-75
2022/10/08 01:50:11;;;;;;;6.00;3.90;;;12.20;99.90;;;;;;4183538;28;20710;-74
2022/10/08 01:52:19;;;;;;;10.17;4.33;;;12.20;99.90;;;;;;4185264;28;20236;-75
2022/10/08 01:54:24;;;;;;;5.20;3.60;;;12.30;99.90;;;;;;4183428;28;20205;-75
2022/10/08 01:56:30;;;;;;;5.63;3.37;;;12.20;99.90;;;;;;4183129;28;20213;-74
2022/10/08 01:58:37;;;;;;;5.23;3.30;;;12.20;99.90;;;;;;4176566;28;20209;-74
2022/10/08 02:00:40;;;;;;;4.93;3.17;;;12.20;99.90;;;;;;4183329;28;20224;-75
2022/10/08 02:02:44;;;;;;;5.73;3.53;;;12.20;99.90;;;;;;4184571;28;20223;-75
2022/10/08 02:04:45;;;;;;;4.30;3.33;;;12.30;99.90;;;;;;4177275;28;20316;-75
2022/10/08 02:06:51;;;;;;;8.10;4.00;;;12.20;99.90;;;;;;4183589;28;20255;-72
2022/10/08 02:08:53;;;;;;;5.30;3.33;;;12.20;99.90;;;;;;4183328;28;20239;-75
2022/10/08 02:10:55;;;;;;;6.07;3.43;;;12.20;99.90;;;;;;4185049;28;20310;-74
2022/10/08 02:12:57;;;;;;;5.53;3.67;;;12.20;99.90;;;;;;4185106;28;20217;-73
2022/10/08 02:15:00;;;;;;;5.00;3.23;;;12.20;99.90;;;;;;4185753;28;20244;-74
2022/10/08 02:17:22;;;;;;;5.03;3.40;;;12.20;99.90;;;;;;4188936;28;20218;-75
2022/10/08 02:19:35;;;;;;;5.00;3.60;;;12.20;99.90;;;;;;4187846;28;20239;-75
2022/10/08 02:21:39;;;;;;;4.63;3.10;;;12.20;99.90;;;;;;4188516;28;20316;-75
2022/10/08 02:23:47;;;;;;;4.13;3.10;;;12.20;99.90;;;;;;4187230;28;20219;-75
2022/10/08 02:25:53;;;;;;;4.00;2.97;;;12.20;99.90;;;;;;4192352;28;20845;-75
2022/10/08 02:28:02;;;;;;;4.80;3.30;;;12.20;99.90;;;;;;4185514;28;20300;-76
2022/10/08 02:30:10;;;;;;;5.13;3.33;;;12.20;99.90;;;;;;4187516;28;20230;-73
2022/10/08 02:32:19;;;;;;;4.37;2.90;;;12.20;99.90;;;;;;4181426;28;20711;-75
2022/10/08 02:34:29;;;;;;;4.83;3.27;;;12.20;99.90;;;;;;4194123;28;20215;-75
2022/10/08 02:36:35;;;;;;;4.87;3.30;;;12.20;99.90;;;;;;4187374;28;20205;-73
2022/10/08 02:38:40;;;;;;;5.87;3.23;;;12.10;99.90;;;;;;4186582;28;20205;-74
2022/10/08 02:40:45;;;;;;;3.60;2.90;;;12.10;99.90;;;;;;4187407;28;20220;-73
2022/10/08 02:42:55;;;;;;;5.90;3.40;;;12.20;99.90;;;;;;4187595;28;20220;-73
2022/10/08 02:45:00;;;;;;;5.73;3.47;;;12.20;99.90;;;;;;4186296;28;20212;-75
2022/10/08 02:47:05;;;;;;;4.80;3.10;;;12.20;99.90;;;;;;4187035;28;20209;-73
2022/10/08 02:49:12;;;;;;;4.70;3.13;;;12.20;99.90;;;;;;4186749;28;20236;-74
2022/10/08 02:51:17;;;;;;;4.97;3.27;;;12.20;99.90;;;;;;4186328;28;20747;-75
2022/10/08 02:53:21;;;;;;;4.67;3.20;;;12.10;99.90;;;;;;4186946;28;20220;-75
2022/10/08 02:55:33;;;;;;;6.03;3.13;;;12.20;99.90;;;;;;4185784;28;20295;-74
2022/10/08 02:57:41;;;;;;;5.00;2.67;;;12.20;99.90;;;;;;4181589;28;20256;-74
2022/10/08 02:59:44;;;;;;;3.50;2.77;;;12.20;99.90;;;;;;4187375;28;20229;-75
2022/10/08 03:01:50;;;;;;;4.13;2.90;;;12.20;99.90;;;;;;4186292;28;20215;-74
2022/10/08 03:03:57;;;;;;;3.67;2.70;;;12.10;99.90;;;;;;4182461;28;20217;-74
2022/10/08 03:06:01;;;;;;;3.87;2.67;;;12.20;99.90;;;;;;4183872;28;20236;-75
2022/10/08 03:08:06;;;;;;;4.73;2.77;;;12.10;99.90;;;;;;4184475;28;20663;-74
2022/10/08 03:10:09;;;;;;;3.43;2.67;;;12.20;99.90;;;;;;4185296;28;20227;-74
2022/10/08 03:12:11;;;;;;;4.50;2.97;;;12.10;99.90;;;;;;4186966;28;20206;-72
2022/10/08 03:14:16;;;;;;;3.67;2.73;;;12.10;99.90;;;;;;4183966;28;20228;-74
2022/10/08 03:16:21;;;;;;;3.73;2.70;;;12.10;99.90;;;;;;4185310;28;20229;-75
2022/10/08 03:18:25;;;;;;;4.27;3.10;;;12.10;99.90;;;;;;4184441;28;20328;-73
2022/10/08 03:20:29;;;;;;;5.10;3.77;;;12.10;99.90;;;;;;4186072;28;20316;-73
2022/10/08 03:22:31;;;;;;;3.93;3.03;;;12.10;99.90;;;;;;4186975;28;20746;-75
2022/10/08 03:24:35;;;;;;;4.60;2.90;;;12.10;99.90;;;;;;4186232;28;20228;-74
2022/10/08 03:26:37;;;;;;;7.30;3.50;;;12.10;99.90;;;;;;4180749;28;20210;-75
2022/10/08 03:28:39;;;;;;;4.60;3.30;;;12.10;99.90;;;;;;4184569;28;20225;-72
2022/10/08 03:30:40;;;;;;;6.17;3.40;;;12.20;99.90;;;;;;4184167;28;20209;-75
2022/10/08 03:32:42;;;;;;;4.90;3.20;;;12.10;99.90;;;;;;4178768;28;20249;-75
2022/10/08 03:34:44;;;;;;;5.70;3.83;;;12.10;99.90;;;;;;4184547;28;20206;-74
2022/10/08 03:36:46;;;;;;;5.37;3.50;;;12.00;99.90;;;;;;4185253;28;20340;-73
2022/10/08 03:38:48;;;;;;;6.00;3.97;;;12.10;99.90;;;;;;4188849;28;20204;-73
2022/10/08 03:40:57;;;;;;;6.07;3.53;;;12.10;99.90;;;;;;4186817;28;20564;-75
2022/10/08 03:42:58;;;;;;;4.70;3.20;;;12.10;99.90;;;;;;4186937;28;20205;-76
2022/10/08 03:45:01;;;;;;;5.17;3.17;;;12.00;99.90;;;;;;4184809;28;20217;-73
2022/10/08 03:47:03;;;;;;;4.53;3.57;;;12.00;99.90;;;;;;4182531;28;20755;-74
2022/10/08 03:49:05;;;;;;;5.97;3.80;;;12.10;99.90;;;;;;4183420;28;20230;-74
2022/10/08 03:51:09;;;;;;;5.13;3.60;;;12.00;99.90;;;;;;4180549;28;20744;-74
2022/10/08 03:53:10;;;;;;;5.83;3.53;;;12.00;99.90;;;;;;4178891;28;20210;-74
2022/10/08 03:55:12;;;;;;;5.57;3.90;;;12.00;99.90;;;;;;4183584;28;20486;-74
2022/10/08 03:57:15;;;;;;;4.73;3.50;;;12.00;99.90;;;;;;4184709;28;20243;-74
2022/10/08 03:59:17;;;;;;;5.90;4.03;;;12.00;99.90;;;;;;4181254;28;20263;-74
2022/10/08 04:01:19;;;;;;;6.33;4.13;;;12.00;99.90;;;;;;4183525;28;20220;-75
2022/10/08 04:03:21;;;;;;;9.47;4.67;;;12.00;99.90;;;;;;4182562;28;20239;-75
2022/10/08 04:05:23;;;;;;;6.20;4.30;;;12.00;99.90;;;;;;4186350;28;20201;-75
2022/10/08 04:07:25;;;;;;;6.17;4.27;;;12.00;99.90;;;;;;4178237;28;20293;-73
2022/10/08 04:09:27;;;;;;;6.83;4.30;;;12.00;99.90;;;;;;4181684;28;20248;-74
2022/10/08 04:11:29;;;;;;;6.87;4.23;;;12.00;99.90;;;;;;4185144;28;20826;-72
2022/10/08 04:13:33;;;;;;;10.63;5.00;;;12.00;99.90;;;;;;4183929;28;20217;-74
2022/10/08 04:15:36;;;;;;;7.73;5.33;;;12.00;99.90;;;;;;4184907;28;20232;-75
2022/10/08 04:17:38;;;;;;;8.33;5.23;;;12.00;99.90;;;;;;4177995;28;20610;-73
2022/10/08 04:19:39;;;;;;;7.83;5.30;;;12.00;99.90;;;;;;4185308;28;20217;-74
2022/10/08 04:21:41;;;;;;;9.90;5.13;;;11.90;99.90;;;;;;4183357;28;20247;-74
2022/10/08 04:23:44;;;;;;;10.03;5.30;;;11.90;99.90;;;;;;4182257;28;20215;-73
2022/10/08 04:25:50;;;;;;;8.63;5.60;;;11.90;99.90;;;;;;4190571;28;20268;-75
2022/10/08 04:27:52;;;;;;;11.10;5.80;;;11.90;99.90;;;;;;4196073;28;20247;-75
2022/10/08 04:29:55;;;;;;;9.30;5.30;;;11.90;99.90;;;;;;4193801;28;20221;-73
2022/10/08 04:31:57;;;;;;;9.77;5.80;;;11.90;99.90;;;;;;4192926;28;20264;-72
2022/10/08 04:33:59;;;;;;;9.30;5.53;;;11.90;99.90;;;;;;4186545;28;20291;-75
2022/10/08 04:36:01;;;;;;;8.30;5.67;;;11.90;99.90;;;;;;4183776;28;20222;-74
2022/10/08 04:38:03;;;;;;;9.60;5.50;;;11.80;99.90;;;;;;4183246;28;20555;-75
2022/10/08 04:40:05;;;;;;;9.43;5.73;;;11.80;99.90;;;;;;4181881;28;20221;-74
2022/10/08 04:42:07;;;;;;;10.40;5.90;;;11.80;99.90;;;;;;4183015;28;20220;-76
2022/10/08 04:44:09;;;;;;;7.70;4.90;;;11.80;99.90;;;;;;4185031;28;20296;-74
2022/10/08 04:46:14;;;;;;;8.33;5.10;;;11.80;99.90;;;;;;4177140;28;20245;-74
2022/10/08 04:48:16;;;;;;;7.80;4.50;;;11.80;99.90;;;;;;4182047;28;20240;-75
2022/10/08 04:50:18;;;;;;;7.07;4.30;;;11.70;99.90;;;;;;4184691;28;20685;-73
2022/10/08 04:52:19;;;;;;;7.83;4.57;;;11.70;99.90;;;;;;4183545;28;20511;-74
2022/10/08 04:54:21;;;;;;;6.83;4.50;;;11.80;99.90;;;;;;4181893;28;20200;-74
2022/10/08 04:56:26;;;;;;;7.20;4.90;;;11.80;99.90;;;;;;4182326;28;20324;-75
2022/10/08 04:58:28;;;;;;;7.30;4.10;;;11.80;99.90;;;;;;4183924;28;20239;-74
2022/10/08 05:00:29;;;;;;;5.40;4.03;;;11.80;99.90;;;;;;4182823;28;20577;-75
2022/10/08 05:02:33;;;;;;;7.77;4.97;;;11.70;99.90;;;;;;4184083;28;20747;-75
2022/10/08 05:04:35;;;;;;;7.33;5.13;;;11.80;99.90;;;;;;4179883;28;20715;-74
2022/10/08 05:06:37;;;;;;;10.67;5.00;;;11.80;99.90;;;;;;4183785;28;20233;-74
2022/10/08 05:08:39;;;;;;;8.43;5.60;;;11.80;99.90;;;;;;4181490;28;21995;-74
2022/10/08 05:10:48;;;;;;;7.57;4.57;;;11.80;99.90;;;;;;4184005;28;20260;-74
2022/10/08 05:12:50;;;;;;;7.20;4.97;;;11.90;99.90;;;;;;4180776;28;20206;-74
2022/10/08 05:14:51;;;;;;;6.73;4.80;;;11.80;99.90;;;;;;4183120;28;20300;-74
2022/10/08 05:16:53;;;;;;;7.83;5.33;;;11.90;99.90;;;;;;4184638;28;20244;-75
2022/10/08 05:18:57;;;;;;;9.83;5.20;;;11.80;99.90;;;;;;4181009;28;20232;-74
2022/10/08 05:21:02;;;;;;;10.70;6.00;;;11.80;99.90;;;;;;4180982;28;20685;-75
2022/10/08 05:23:04;;;;;;;13.80;7.00;;;11.80;99.90;;;;;;4185285;28;20296;-73
2022/10/08 05:25:07;;;;;;;9.13;5.80;;;11.80;99.90;;;;;;4185156;28;20678;-74
2022/10/08 05:27:09;;;;;;;8.70;6.20;;;11.80;99.90;;;;;;4185270;28;20213;-75
2022/10/08 05:29:11;;;;;;;10.53;6.10;;;11.80;99.90;;;;;;4186869;28;20220;-75
2022/10/08 05:31:13;;;;;;;9.63;6.10;;;11.80;99.90;;;;;;4183442;28;20301;-75
2022/10/08 05:33:14;;;;;;;8.23;5.37;;;11.80;99.90;;;;;;4181719;28;20215;-75
2022/10/08 05:35:18;;;;;;;8.60;5.40;;;11.80;99.90;;;;;;4189636;28;20219;-75
2022/10/08 05:37:19;;;;;;;9.80;6.17;;;11.80;99.90;;;;;;4178226;28;20232;-75
2022/10/08 05:39:21;;;;;;;13.10;6.20;;;11.80;99.90;;;;;;4185786;28;20229;-74
2022/10/08 05:41:25;;;;;;;9.73;5.53;;;11.80;99.90;;;;;;4183556;28;20220;-74
2022/10/08 05:43:27;;;;;;;7.77;4.80;;;11.80;99.90;;;;;;4178514;28;20224;-75
2022/10/08 05:45:29;;;;;;;10.80;5.37;;;11.90;99.90;;;;;;4185301;28;20217;-74
2022/10/08 05:47:31;;;;;;;10.13;5.37;;;11.80;99.90;;;;;;4183457;28;20212;-75
2022/10/08 05:49:35;;;;;;;10.70;5.63;;;11.80;99.90;;;;;;4184323;28;20792;-75
2022/10/08 05:51:39;;;;;;;14.27;5.80;;;11.80;99.90;;;;;;4185283;28;20209;-74
2022/10/08 05:53:43;;;;;;;9.93;5.60;;;11.80;99.90;;;;;;4189304;28;20238;-75
2022/10/08 05:55:47;;;;;;;8.40;5.20;;;11.80;99.90;;;;;;4193964;28;20311;-75
2022/10/08 05:57:49;;;;;;;10.97;5.93;;;11.90;99.90;;;;;;4188954;28;20233;-75
2022/10/08 05:59:51;;;;;;;8.67;4.87;;;11.90;99.90;;;;;;4187734;28;20260;-75
2022/10/08 06:01:53;;;;;;;9.40;5.30;;;11.90;99.90;;;;;;4186353;28;20198;-74
2022/10/08 06:03:56;;;;;;;10.27;5.80;;;11.90;99.90;;;;;;4187227;28;20689;-74
2022/10/08 06:06:02;;;;;;;14.93;6.50;;;11.90;99.90;;;;;;4186289;28;20236;-75
2022/10/08 06:08:05;;;;;;;9.27;5.83;;;11.90;99.90;;;;;;4182836;28;20212;-74
2022/10/08 06:10:08;;;;;;;13.80;6.53;;;11.90;99.90;;;;;;4180148;28;20308;-74
2022/10/08 06:12:11;;;;;;;11.53;6.47;;;11.90;99.90;;;;;;4180044;28;20847;-74
2022/10/08 06:14:15;;;;;;;13.27;7.50;;;11.90;99.90;;;;;;4189252;28;20213;-75
2022/10/08 06:16:17;;;;;;;10.93;7.03;;;11.90;99.90;;;;;;4180082;28;20229;-74
2022/10/08 06:18:19;;;;;;;9.90;5.60;;;11.90;99.90;;;;;;4187282;28;20214;-74
2022/10/08 06:20:22;;;;;;;12.83;6.20;;;11.90;99.90;;;;;;4185934;28;20236;-74
2022/10/08 06:22:24;;;;;;;11.83;6.40;;;11.90;99.90;;;;;;4188304;28;20292;-74
2022/10/08 06:24:27;;;;;;;8.60;5.57;;;11.90;99.90;;;;;;4187285;28;20301;-74
2022/10/08 06:26:31;;;;;;;11.43;5.70;;;11.90;99.90;;;;;;4188314;28;20283;-74
2022/10/08 06:28:35;;;;;;;7.60;5.40;;;11.90;99.90;;;;;;4185954;28;20658;-74
2022/10/08 06:30:39;;;;;;;7.57;5.13;;;11.90;99.90;;;;;;4187797;28;20568;-74
2022/10/08 06:32:41;;;;;;;6.33;4.57;;;11.90;99.90;;;;;;4184463;28;20296;-74
2022/10/08 06:34:43;;;;;;;6.13;4.17;;;12.00;99.90;;;;;;4185199;28;20296;-72
2022/10/08 06:36:44;;;;;;;9.43;5.20;;;12.00;99.90;;;;;;4184284;28;20230;-74
2022/10/08 06:38:49;;;;;;;6.83;4.47;;;12.00;99.90;;;;;;4188308;28;20228;-75
2022/10/08 06:40:53;;;;;;;10.80;5.30;;;12.00;99.90;;;;;;4179212;28;20259;-74
2022/10/08 06:42:54;;;;;;;12.00;5.97;;;12.10;99.90;;;;;;4182637;28;21569;-74
2022/10/08 06:44:56;;;;;;;11.00;6.87;;;12.10;99.90;;;;;;4182965;28;20593;-72
2022/10/08 06:46:58;;;;;;;17.23;8.70;;;12.10;99.90;;;;;;4184381;28;20201;-75
2022/10/08 06:49:01;;;;;;;21.73;9.97;;;12.10;99.90;;;;;;4182804;28;20235;-74
2022/10/08 06:51:06;;;;;;;16.63;8.43;;;12.10;99.90;;;;;;4186250;28;20216;-74
2022/10/08 06:53:11;;;;;;;19.00;8.93;;;12.20;99.90;;;;;;4184889;28;20197;-74
2022/10/08 06:55:13;;;;;;;17.60;8.73;;;12.20;99.90;;;;;;4183150;28;20248;-76
2022/10/08 06:57:16;;;;;;;15.67;6.80;;;12.20;99.90;;;;;;4186331;28;20228;-73
2022/10/08 06:59:19;;;;;;;13.90;6.83;;;12.30;99.90;;;;;;4185706;28;20328;-72
2022/10/08 07:01:23;;;;;;;10.03;5.80;;;12.30;99.90;;;;;;4185097;28;20244;-72
2022/10/08 07:03:24;;;;;;;11.57;4.80;;;12.30;99.90;;;;;;4186135;28;20263;-73
2022/10/08 07:05:27;;;;;;;12.03;5.07;;;12.30;99.90;;;;;;4184316;28;20202;-72
2022/10/08 07:07:28;;;;;;;10.13;4.30;;;12.30;99.90;;;;;;4183069;28;20205;-73
2022/10/08 07:09:30;;;;;;;8.37;4.33;;;12.40;99.90;;;;;;4184150;28;20233;-73
2022/10/08 07:11:33;;;;;;;13.27;4.30;;;12.40;99.90;;;;;;4182492;28;20236;-72
2022/10/08 07:13:37;;;;;;;9.40;4.33;;;12.40;99.90;;;;;;4192646;28;21067;-74
2022/10/08 07:15:40;;;;;;;7.93;3.70;;;12.40;99.90;;;;;;4193752;28;20214;-73
2022/10/08 07:17:42;;;;;;;10.47;3.97;;;12.50;99.90;;;;;;4188647;28;20245;-73
2022/10/08 07:19:44;;;;;;;8.83;3.77;;;12.50;99.90;;;;;;4189370;28;20245;-73
2022/10/08 07:21:45;;;;;;;8.73;3.43;;;12.50;99.90;;;;;;4192345;28;20201;-73
2022/10/08 07:23:48;;;;;;;7.60;3.67;;;12.60;99.90;;;;;;4180381;28;20205;-72
2022/10/08 07:25:56;;;;;;;9.17;3.53;;;12.60;99.90;;;;;;4186166;28;20202;-73
2022/10/08 07:27:57;;;;;;;8.93;2.90;;;12.60;99.90;;;;;;4185854;28;20636;-73
2022/10/08 07:30:01;;;;;;;6.50;2.90;;;12.60;99.90;;;;;;4183490;28;20218;-73
2022/10/08 07:32:03;;;;;;;9.73;3.37;;;12.70;99.90;;;;;;4179032;28;20207;-73
2022/10/08 07:34:07;;;;;;;10.27;3.10;;;12.70;99.90;;;;;;4186235;28;20979;-73
2022/10/08 07:36:09;;;;;;;6.00;3.30;;;12.80;99.90;;;;;;4184801;28;20745;-73
2022/10/08 07:38:11;;;;;;;7.03;3.13;;;12.70;99.90;;;;;;4184177;28;20225;-73
2022/10/08 07:40:13;;;;;;;8.73;3.20;;;12.70;99.90;;;;;;4184037;28;20328;-73
2022/10/08 07:42:15;;;;;;;4.80;2.37;;;12.90;99.90;;;;;;4183236;28;20272;-73
2022/10/08 07:44:17;;;;;;;9.37;3.00;;;12.90;99.90;;;;;;4186100;28;20217;-73
2022/10/08 07:46:21;;;;;;;10.20;3.10;;;12.90;99.90;;;;;;4184254;28;20210;-72
2022/10/08 07:48:23;;;;;;;6.87;2.93;;;13.00;99.90;;;;;;4184371;28;20690;-72
2022/10/08 07:50:25;;;;;;;7.87;3.10;;;13.00;99.90;;;;;;4182579;28;20240;-71
2022/10/08 07:52:30;;;;;;;6.67;2.90;;;13.10;99.90;;;;;;4184468;28;20615;-72
2022/10/08 07:54:31;;;;;;;6.07;3.47;;;13.20;99.90;;;;;;4183850;28;20801;-72
2022/10/08 07:56:34;;;;;;;6.50;3.50;;;13.20;99.90;;;;;;4182201;28;20206;-73
2022/10/08 07:58:37;;;;;;;6.87;3.43;;;13.20;99.90;;;;;;4177773;28;20218;-73
2022/10/08 08:00:39;;;;;;;6.17;3.03;;;13.30;99.90;;;;;;4185553;28;20664;-73
2022/10/08 08:02:43;;;;;;;7.30;3.33;;;13.30;99.90;;;;;;4185093;28;20206;-73
2022/10/08 08:04:47;;;;;;;12.60;3.00;;;13.30;99.90;;;;;;4185042;28;20213;-73
2022/10/08 08:06:51;;;;;;;8.27;3.07;;;13.40;99.90;;;;;;4184918;28;20240;-72
2022/10/08 08:08:53;;;;;;;8.87;3.23;;;13.40;99.90;;;;;;4183078;28;20611;-71
2022/10/08 08:10:57;;;;;;;5.67;2.90;;;13.50;99.90;;;;;;4178930;28;20203;-72
2022/10/08 08:12:58;;;;;;;9.70;3.00;;;13.50;99.90;;;;;;4179185;28;20202;-72
2022/10/08 08:15:00;;;;;;;5.37;2.60;;;13.50;99.90;;;;;;4182486;28;20209;-74
2022/10/08 08:17:02;;;;;;;5.60;2.37;;;13.50;99.90;;;;;;4185646;28;20250;-76
2022/10/08 08:19:06;;;;;;;8.67;2.80;;;13.60;99.90;;;;;;4191658;28;20248;-73
2022/10/08 08:21:10;;;;;;;8.07;2.60;;;13.60;99.90;;;;;;4188712;28;20663;-72
2022/10/08 08:23:11;;;;;;;6.03;2.70;;;13.70;99.90;;;;;;4187328;28;20617;-71
2022/10/08 08:25:13;;;;;;;5.30;2.57;;;13.70;99.90;;;;;;4182049;28;20210;-71
2022/10/08 08:27:16;;;;;;;5.43;2.07;;;13.80;99.90;;;;;;4181133;28;20210;-71
2022/10/08 08:29:19;;;;;;;10.63;2.57;;;13.80;99.90;;;;;;4185660;28;20264;-71
2022/10/08 08:31:23;;;;;;;7.83;2.93;;;13.80;99.90;;;;;;4187639;28;20203;-74
2022/10/08 08:33:24;;;;;;;3.97;2.43;;;13.90;99.90;;;;;;4188074;28;20289;-75
2022/10/08 08:35:28;;;;;;;9.47;2.40;;;13.90;99.90;;;;;;4186125;28;20797;-72
2022/10/08 08:37:30;;;;;;;8.27;2.30;;;14.00;99.90;;;;;;4191440;28;20217;-73
2022/10/08 08:39:32;;;;;;;8.97;2.43;;;14.00;99.90;;;;;;4181255;28;20223;-75
2022/10/08 08:41:46;;;;;;;7.57;2.70;;;14.10;99.90;;;;;;4183879;28;20234;-71
2022/10/08 08:43:48;;;;;;;8.67;2.40;;;14.10;99.90;;;;;;4190563;28;20717;-73
2022/10/08 08:45:50;;;;;;;5.97;2.03;;;14.20;99.90;;;;;;4189151;28;20213;-73
2022/10/08 08:47:59;;;;;;;6.97;2.50;;;14.20;99.90;;;;;;4184546;28;20211;-72
2022/10/08 08:50:06;;;;;;;6.10;1.90;;;14.20;99.90;;;;;;4180008;28;20320;-72
2022/10/08 08:52:12;;;;;;;5.97;2.10;;;14.20;99.90;;;;;;4189399;28;20663;-74
2022/10/08 08:54:14;;;;;;;7.83;2.20;;;14.30;99.90;;;;;;4184606;28;20202;-73
2022/10/08 08:56:24;;;;;;;6.73;1.80;;;14.40;99.90;;;;;;4186964;28;20210;-72
2022/10/08 08:58:33;;;;;;;8.43;2.07;;;14.40;99.90;;;;;;4185885;28;20304;-75
2022/10/08 09:00:40;;;;;;;7.27;1.70;;;14.50;99.90;;;;;;4185347;28;20198;-75
2022/10/08 09:02:51;;;;;;;8.00;1.90;;;14.50;99.90;;;;;;4188524;28;20306;-74
2022/10/08 09:04:57;;;;;;;6.00;1.90;;;14.50;99.90;;;;;;4181655;28;20250;-75
2022/10/08 09:07:01;;;;;;;5.90;1.67;;;14.60;99.90;;;;;;4188512;28;20226;-72
2022/10/08 09:09:15;;;;;;;5.67;1.63;;;14.60;99.90;;;;;;4180857;28;20244;-75
2022/10/08 09:11:20;;;;;;;8.33;1.93;;;14.70;99.90;;;;;;4185950;28;20211;-73
2022/10/08 09:13:26;;;;;;;6.00;1.70;;;14.70;99.90;;;;;;4180255;28;20302;-73
2022/10/08 09:15:34;;;;;;;7.87;2.13;;;14.70;99.90;;;;;;4184836;28;20205;-71
2022/10/08 09:17:40;;;;;;;6.17;1.60;;;14.80;99.90;;;;;;4180124;28;20763;-74
2022/10/08 09:19:43;;;;;;;5.17;1.40;;;14.90;99.90;;;;;;4180673;28;20223;-74
2022/10/08 09:21:46;;;;;;;5.33;1.80;;;14.90;99.90;;;;;;4182076;28;20209;-72
2022/10/08 09:23:48;;;;;;;7.57;1.80;;;15.00;99.90;;;;;;4186073;28;20708;-76
2022/10/08 09:25:56;;;;;;;6.63;1.80;;;15.00;99.90;;;;;;4182287;28;20201;-74
2022/10/08 09:27:59;;;;;;;8.87;1.50;;;15.10;99.90;;;;;;4183948;28;20218;-73
2022/10/08 09:30:01;;;;;;;7.23;1.60;;;15.20;99.90;;;;;;4178807;28;20870;-78
2022/10/08 09:32:04;;;;;;;7.53;2.13;;;15.20;99.90;;;;;;4182179;28;20239;-72
2022/10/08 09:34:17;;;;;;;7.47;1.70;;;15.30;99.90;;;;;;4192209;28;20739;-72
2022/10/08 09:36:29;;;;;;;4.40;1.33;;;15.30;99.90;;;;;;4184735;28;20208;-74
2022/10/08 09:38:35;;;;;;;9.17;1.53;;;15.40;99.90;;;;;;4185358;28;20246;-73
2022/10/08 09:40:37;;;;;;;7.10;1.37;;;15.40;99.90;;;;;;4179987;28;20245;-75
2022/10/08 09:42:41;;;;;;;4.83;1.57;;;15.50;99.90;;;;;;4190175;28;20211;-76
2022/10/08 09:44:44;;;;;;;4.10;1.40;;;15.50;99.90;;;;;;4179117;28;20282;-76
2022/10/08 09:46:47;;;;;;;6.30;1.67;;;15.50;99.90;;;;;;4178233;28;20644;-74
2022/10/08 09:48:49;;;;;;;2.67;1.43;;;15.60;99.90;;;;;;4178881;28;20295;-73
2022/10/08 09:50:55;;;;;;;6.53;1.50;;;15.70;99.90;;;;;;4178667;28;20206;-77
2022/10/08 09:52:56;;;;;;;7.10;1.90;;;15.80;99.90;;;;;;4190761;28;20229;-73
2022/10/08 09:55:01;;;;;;;7.00;1.50;;;15.90;99.90;;;;;;4178471;28;20281;-74
2022/10/08 09:57:06;;;;;;;7.37;1.60;;;16.00;99.90;;;;;;4187239;28;20289;-74
2022/10/08 09:59:19;;;;;;;9.53;2.00;;;16.00;99.90;;;;;;4186304;28;20308;-74
2022/10/08 10:01:21;;;;;;;5.17;1.60;;;16.10;99.90;;;;;;4180027;28;20575;-72
2022/10/08 10:03:25;;;;;;;8.13;1.50;;;16.10;99.90;;;;;;4191224;28;20304;-77
2022/10/08 10:05:29;;;;;;;4.40;1.10;;;16.20;99.90;;;;;;4197369;28;20223;-77
2022/10/08 10:07:41;;;;;;;6.20;1.40;;;16.30;99.90;;;;;;4204644;28;20202;-79
2022/10/08 10:09:47;;;;;;;5.43;1.30;;;16.40;99.90;;;;;;4202388;28;20246;-80
2022/10/08 10:11:54;;;;;;;5.43;1.30;;;16.40;99.90;;;;;;4210060;28;20205;-77
2022/10/08 10:14:04;;;;;;;4.57;1.43;;;16.60;99.90;;;;;;4201019;28;20207;-75
2022/10/08 10:16:14;;;;;;;7.80;1.60;;;16.60;99.90;;;;;;4199762;28;20210;-75
2022/10/08 10:18:19;;;;;;;6.87;2.03;;;16.70;99.90;;;;;;4190695;28;20223;-76
2022/10/08 10:20:27;;;;;;;6.23;1.77;;;16.80;99.90;;;;;;4193663;28;20625;-75
2022/10/08 10:22:35;;;;;;;6.10;1.40;;;16.80;99.90;;;;;;4186504;28;20224;-74
2022/10/08 10:24:52;;;;;;;4.10;1.43;;;16.80;99.90;;;;;;4185989;28;20225;-73
2022/10/08 10:26:59;;;;;;;5.27;1.40;;;16.80;99.90;;;;;;4181302;28;20221;-73
2022/10/08 10:29:05;;;;;;;6.27;1.60;;;16.80;99.90;;;;;;4186232;28;20227;-75
2022/10/08 10:31:14;;;;;;;7.60;1.60;;;16.90;99.90;;;;;;4184721;28;20260;-74
2022/10/08 10:33:22;;;;;;;5.43;2.03;;;16.90;99.90;;;;;;4179217;28;20916;-75
2022/10/08 10:35:25;;;;;;;5.90;1.80;;;16.90;99.80;;;;;;4180733;28;20212;-74
2022/10/08 10:37:35;;;;;;;5.13;1.57;;;16.90;99.90;;;;;;4189265;28;20319;-74
2022/10/08 10:39:44;;;;;;;6.70;1.53;;;17.00;99.90;;;;;;4189603;28;20259;-76
2022/10/08 10:41:50;;;;;;;5.30;1.40;;;17.00;99.90;;;;;;4185440;28;20208;-75
2022/10/08 10:43:54;;;;;;;8.00;1.50;;;17.00;99.70;;;;;;4189089;28;20216;-73
2022/10/08 10:46:01;;;;;;;4.83;1.27;;;17.00;99.90;;;;;;4183955;28;20195;-73